San Antonio, TX

6:37 AM CDT en Septiembre 02, 2014 (GMT -0500)
Castle Hills | Change Station
CLOSE
Current Station
Estación meteorológica personal
Location: San Antonio, TX
Altura: 869 ft
Estaciones meteorológicas cercanas

Alt 869 ft 29.53 °N, 98.52 °W | Updated 5 minutes ago

Mostly Cloudy
Muy nublado
77.2 ° F
Sensación térmica 79 ° F
N
1.6
Viento Variable Viento desde SSE

Hoy
Alta -- | Baja -- ° F
--% Posibilidad de precipitaciones
Ayer
Alta -- | Baja -- ° F
Precip. -- pul
7:12 AM 7:54 PM
Creciente, 50% visible
Presión 29.88 pul
Visibilidad 10.0 Millas
Nubes Nubes dispersas 1700 ft
Muy nublado 4200 ft
Índice de calor 79 ° F
Punto de rocío 74 ° F
Humedad 91%
Precipitaciones 0.00 pul
Espesor de la nieve No disponible.
UV 0 de una escala de 12
Polen 9.80 de una escala de 12
Ozono Buena
PM2.5 Buena
Flu Activity No disponible.
METAR KSAT 021051Z 17007KT 10SM SCT017 BKN042 27/23 A2994 RMK AO2 SLP118 T02670233 $

More Conditions Fewer Conditions

Presión 29.88 pul
Visibilidad 10.0 Millas
Nubes Nubes dispersas 1700 ft
Muy nublado 4200 ft
Índice de calor 79 ° F
Punto de rocío 74 ° F
Humedad 91%
Precipitaciones 0.00 pul
Espesor de la nieve No disponible.
UV 0 de una escala de 12
Polen 9.80 de una escala de 12
Ozono Buena
PM2.5 Buena
Flu Activity No disponible.
METAR KSAT 021051Z 17007KT 10SM SCT017 BKN042 27/23 A2994 RMK AO2 SLP118 T02670233 $

More Conditions Fewer Conditions

10-Day Weather Forecast

Almanac

Astronomía

Sep. 02, 2014 Salida Puesta
Hora real 7:12 AM CDT 7:54 PM CDT
Crepúsculo civil 6:47 AM CDT 8:19 PM CDT
Crepúsculo náutico 6:19 AM CDT 8:47 PM CDT
Crepúsculo astronómico 5:50 AM CDT 9:16 PM CDT
Luna 2:26 PM CDT 12:29 AM CDT
Horas de luz 13h 31m
Horas de luz
12h 42m
Tomorrow will be 1m 41s shorter.
Creciente, 50% of the Moon is Illuminated
Hoy
Creciente
Sep 8
Luna llena
Sep 15
Cuarto menguante
Sep 24
Nueva
Oct 1
Cuarto creciente

Extremos de hoy

Máximos del estado Bajos del estado

Community

WunderPhotos

Upload Photos

1,749,621 ¡fotos cargadas!

WunderBlogs® & News

By Dr. Jeff Masters
Director of Meteorology, Weather Underground
By Kari Strenfel
Meteorologist, Weather Underground
By Christopher C. Burt
Weather Historian, Weather Underground
September 2, 2014
September 2, 2014
September 2, 2014

Nearby

Calidad del aire

  Calidad del aire Índice AQ Contaminante
Ayer Buena
PM2.5
Ayer Buena
OZONE
Real Buena
PM2.5
Real Buena
OZONE
Martes Buena
OZONE
Martes Buena
PM10
Miércoles Buena
OZONE
Miércoles Buena
PM10
Jueves Buena
OZONE
Jueves Buena
PM10

Grosos de nieve

Estación Profundido Altura
No tenemos constancia de nieve nueva.

Actividad de terremotos

Ciudad Distance Mag. Tiempo y dato
No hay informes recientes de la actividad sísmica.
Magnitud mínima muestra es 2,5.

Temperaturas de aguas costeras

Lugar Temperatura
Sin partes meteorológicos de las estaciones

Estaciones meteorológicas cercanas